Auckland International Airport
NZAA : now visible

Airfield :











YOU CAN JOIN US ON...

 
LOGIN :

Register | Disclaimer

   EN    FR    IT 

 









Legend :    VFR   Marginal VFR   IFR   Intensive IFR   Very Intensive IFR
Visi :
Ceiling :
>= 8 km
>= 3000ft
5 to 8 km
1000 to 3000 ft
1500m to 5 km
500 to 1000 ft
800 to 1500m
200 to 500 ft
< 800m
< 200 ft
Symbols :   Thunderstorms  Fog  Heavy snow  Heavy precipitations  Wind > 20 kt






- Airport Elevation : 23 ft
- IATA code : AKL


NZAA - Auckland International

CURRENT METAR :
  • 040800Z AUTO 22011KT 9999 OVC038/// 16/08 Q1013 NOSIG

EXPIRED METARs :
  • 040730Z AUTO 23011KT 9999 OVC036/// 16/09 Q1013 NOSIG
  • 040700Z AUTO 24012KT 9999 OVC036/// 16/09 Q1013 NOSIG
  • 040630Z AUTO 24010KT 9999 BKN037/// 16/10 Q1013 NOSIG
  • 040600Z AUTO 23012KT 9999 OVC036/// 17/10 Q1013 NOSIG
  • 040530Z AUTO 24012KT 9999 SCT036/// 17/10 Q1013 NOSIG

TAF TAF NZAA
Valid from the 04 at 06:00 until the 05 at 06:00 UTC


040502Z 0406/0506 24015KT 9999 BKN030
BECMG 0410/0412 26005KT
NZZC FIR / Oceania



MET'MAP, your aeronautical weather chart ! - Copyright ORBIFLY December 2007 - Disclaimer

ORBIFLY MET'MAP TEAM :

Programming & Development : Alexandra Zaïnal
Concept & original design : Baudouin d'Aumeries
Assistance for programming : Marc-Olivier Méhu
Technical & hardware support : Manuel Goepfert

Contact : metmap@orbifly.com




SOURCES & CREDITS :

   NOAA       Earth
Advisory